Terminal Aerodrome Forecast
Issued by NWS

Home | Current Version | Previous Version | Text Only | Print | Product List | Glossary On
Versions: 1 2 3 4 5 6 7 8 9 10 11 12 13 14 15 16 17
385
FTUS43 KICT 232001 AAA
TAFCNU
TAF AMD
KCNU 232001Z 2320/2418 01015G22KT P6SM SCT080
     FM232200 01016G24KT P6SM VCTS BKN080CB
      TEMPO 2322/2324 6SM -TSRA OVC080CB
     FM240000 36013KT P6SM BKN120
     FM240300 36007KT P6SM FEW200
     FM241200 VRB03KT P6SM FEW250=

USA.gov is the U.S. government's official web portal to all federal, state and local government web resources and services.